Maxton, NC (28364)

12:05 AM EDT on September 15, 2014 (GMT -0400)
Laurinburg-Maxton | Change Station
CLOSE
Current Station
Airport
Location: Laurinburg-Maxton,
Elevation: 220 ft
Nearby Weather Stations

Elev 220 ft 34.79 °N, 79.37 °W | Updated 13 minutes ago

Overcast
Overcast
69 °F
Feels Like 69 °F
N
0
Wind Variable Wind from North

Today
High -- | Low -- °F
--% Chance of Precip.
Yesterday
High -- | Low -- °F
Precip. -- in
7:00 AM 7:24 PM
Waning Gibbous, 59% visible
Pressure 30.22 in
Visibility 10.0 miles
Clouds Overcast 2000 ft
Dew Point 64 °F
Humidity 84%
Rainfall 0.00 in
Snow Depth Not available.
UV 0 out of 12
Pollen 5.70 out of 12
Ozone Good
PM2.5 Good
Flu Activity Not available.
METAR KMEB 150352Z AUTO 00000KT 10SM OVC020 21/18 A3023 RMK AO2 SLP234 T02060178

More Conditions Fewer Conditions

Pressure 30.22 in
Visibility 10.0 miles
Clouds Overcast 2000 ft
Dew Point 64 °F
Humidity 84%
Rainfall 0.00 in
Snow Depth Not available.
UV 0 out of 12
Pollen 5.70 out of 12
Ozone Good
PM2.5 Good
Flu Activity Not available.
METAR KMEB 150352Z AUTO 00000KT 10SM OVC020 21/18 A3023 RMK AO2 SLP234 T02060178

More Conditions Fewer Conditions

10-Day Weather Forecast

Almanac

Astronomy

Sep. 15, 2014 Rise Set
Actual Time 7:00 AM EDT 7:24 PM EDT
Civil Twilight 6:35 AM EDT 7:49 PM EDT
Nautical Twilight 6:05 AM EDT 8:19 PM EDT
Astronomical Twilight 5:35 AM EDT 8:49 PM EDT
Moon No Moon Rise 1:44 PM EDT
Length of Visible Light 13h 14m
Length of Day
12h 23m
Tomorrow will be 2m 8s shorter.
Waning Gibbous, 59% of the Moon is Illuminated
Today
Waning Gibbous
Sep 15
Last Quarter
Sep 24
New
Oct 1
First Quarter
Oct 8
Full

Yesterday's Extremes

State Highs State Lows

Community

WunderPhotos

Upload Photos

1,753,398 photos uploaded!

Nearby

Air Quality

  Air Quality AQ Index Pollutant
Yesterday Good
PM2.5
Yesterday Good
OZONE
Current Good
PM2.5
Current Good
OZONE
Sunday Good
OZONE
Sunday Good
PM2.5
Monday Good
OZONE
Monday Good
PM2.5
Tuesday Good
PM2.5
Tuesday Good
OZONE
Wednesday Good
PM2.5
Wednesday Good
OZONE

Snow Depth

Station Depth Elevation
No new snow has been reported.

Earthquake Activity

City Distance Mag. Time & Date
No recent earthquake activity has been reported nearby.
Minimum magnitude displayed is 2.5.

Coastal Water Temperatures

Place Temperature
No Stations Reporting

Nearby Weather Stations